North Tazewell, Virginia
Current Conditions -  °F | °C
As of 3:55 AM on Wednesday 22 Oct 2014 (Local Time) from KJFZ Reporting Station
Overcast Overcast  
Wind Chill: 38°   Ceiling: 900
Heat Index: 44°   Visibility: 10mi
Dew Point: 41°   Wind: 9mph
Humidity: 90%   Direction: 330°NNW
Pressure: 30.07"   Gusts: NA
Location:  37.13°N, 81.53°W
Report Text: KJFZ 220755Z AUTO 33008KT 10SM BKN009 OVC013 06/05 A3007 RMK AO2 T00640049
Loading
Personal Weather Stations






























Interactive Weather Map
Tropical Storm Tracking
New forecast layout! Learn more

10-Day Weather Forecast

Advertisements
Track Severe Weather on mobile